OEFPT EDDH-EKSN
Flight info
| Callsign | OEFPT |
|---|---|
| Flight time | N/A |
| Altitude | 5000 |
| Route | |
| Aircraft | DA42/L-SDFGRY/C |
Departure
| Time | N/A |
|---|---|
| Airport | Hamburg Helmut Schmidt Airport (EDDH) |
Arrival
| Time | 2026-05-06 13:51 |
|---|---|
| Airport | Sindal Airport (EKSN) |
| Time | Latitude | Longitude | Altitude | Speed | Heading |
|---|---|---|---|---|---|
| 2026-05-06 12:41 | 54.43450 | 9.59412 | 2031 ft | 150 kts | 333° |
| 2026-05-06 12:41 | 54.44333 | 9.58444 | 2021 ft | 150 kts | 334° |
| 2026-05-06 12:42 | 54.45190 | 9.57493 | 2025 ft | 148 kts | 334° |
| 2026-05-06 12:42 | 54.46050 | 9.56536 | 2026 ft | 146 kts | 334° |
| 2026-05-06 12:42 | 54.46902 | 9.55573 | 2027 ft | 146 kts | 334° |
| 2026-05-06 12:42 | 54.47756 | 9.54605 | 2035 ft | 147 kts | 333° |
| 2026-05-06 12:43 | 54.48625 | 9.53621 | 2019 ft | 149 kts | 334° |
| 2026-05-06 12:43 | 54.49484 | 9.52638 | 2023 ft | 148 kts | 334° |
| 2026-05-06 12:43 | 54.50332 | 9.51671 | 2023 ft | 149 kts | 334° |
| 2026-05-06 12:43 | 54.51200 | 9.50695 | 2026 ft | 149 kts | 333° |
| 2026-05-06 12:44 | 54.52091 | 9.49779 | 2024 ft | 148 kts | 338° |
| 2026-05-06 12:44 | 54.53004 | 9.48945 | 2021 ft | 148 kts | 339° |
| 2026-05-06 12:44 | 54.53929 | 9.48119 | 2019 ft | 151 kts | 339° |
| 2026-05-06 12:44 | 54.54858 | 9.47289 | 2020 ft | 150 kts | 339° |
| 2026-05-06 12:45 | 54.55782 | 9.46462 | 2029 ft | 149 kts | 338° |
| 2026-05-06 12:45 | 54.56696 | 9.45646 | 2019 ft | 150 kts | 339° |
| 2026-05-06 12:45 | 54.58545 | 9.44178 | 2020 ft | 143 kts | 347° |
| 2026-05-06 12:46 | 54.59493 | 9.43684 | 2021 ft | 142 kts | 349° |
| 2026-05-06 12:46 | 54.60443 | 9.43197 | 2032 ft | 142 kts | 349° |
| 2026-05-06 12:46 | 54.61396 | 9.42713 | 2030 ft | 143 kts | 349° |
| 2026-05-06 12:46 | 54.62351 | 9.42218 | 2035 ft | 142 kts | 350° |
| 2026-05-06 12:47 | 54.63292 | 9.41702 | 2029 ft | 141 kts | 349° |
| 2026-05-06 12:47 | 54.64222 | 9.41182 | 2037 ft | 141 kts | 349° |
| 2026-05-06 12:47 | 54.65169 | 9.40676 | 2026 ft | 142 kts | 348° |
| 2026-05-06 12:47 | 54.66102 | 9.40211 | 2021 ft | 141 kts | 348° |
| 2026-05-06 12:48 | 54.67048 | 9.39748 | 2035 ft | 142 kts | 348° |
| 2026-05-06 12:48 | 54.68011 | 9.39292 | 2033 ft | 144 kts | 349° |
| 2026-05-06 12:48 | 54.68985 | 9.38826 | 2027 ft | 144 kts | 349° |
| 2026-05-06 12:48 | 54.69951 | 9.38357 | 2040 ft | 145 kts | 349° |
| 2026-05-06 12:49 | 54.70928 | 9.37884 | 2031 ft | 145 kts | 348° |
| 2026-05-06 12:49 | 54.71890 | 9.37400 | 2041 ft | 144 kts | 349° |
| 2026-05-06 12:49 | 54.72868 | 9.36920 | 2043 ft | 148 kts | 349° |
| 2026-05-06 12:49 | 54.73844 | 9.36435 | 2032 ft | 144 kts | 348° |
| 2026-05-06 12:50 | 54.74798 | 9.35964 | 2034 ft | 141 kts | 348° |
| 2026-05-06 12:50 | 54.75736 | 9.35506 | 2035 ft | 139 kts | 348° |
| 2026-05-06 12:50 | 54.76682 | 9.35036 | 2038 ft | 143 kts | 348° |
| 2026-05-06 12:50 | 54.77632 | 9.34573 | 2044 ft | 142 kts | 350° |
| 2026-05-06 12:51 | 54.78583 | 9.34161 | 2051 ft | 142 kts | 355° |
| 2026-05-06 12:51 | 54.79564 | 9.34064 | 2034 ft | 136 kts | 3° |
| 2026-05-06 12:51 | 54.80510 | 9.34048 | 2053 ft | 137 kts | 4° |
| 2026-05-06 12:51 | 54.81463 | 9.34045 | 2052 ft | 140 kts | 4° |
| 2026-05-06 12:52 | 54.82438 | 9.34029 | 2039 ft | 139 kts | 3° |
| 2026-05-06 12:52 | 54.83393 | 9.34173 | 2053 ft | 138 kts | 11° |
| 2026-05-06 12:52 | 54.84351 | 9.34420 | 2046 ft | 139 kts | 11° |
| 2026-05-06 12:52 | 54.85310 | 9.34669 | 2050 ft | 139 kts | 12° |
| 2026-05-06 12:53 | 54.86265 | 9.34906 | 2135 ft | 135 kts | 12° |
| 2026-05-06 12:53 | 54.87120 | 9.35117 | 2704 ft | 112 kts | 11° |
| 2026-05-06 12:53 | 54.87811 | 9.35263 | 3304 ft | 89 kts | 12° |
| 2026-05-06 12:53 | 54.88406 | 9.35361 | 3687 ft | 87 kts | 12° |
| 2026-05-06 12:54 | 54.89020 | 9.35442 | 4022 ft | 90 kts | 12° |
| 2026-05-06 12:54 | 54.89648 | 9.35522 | 4369 ft | 92 kts | 11° |
| 2026-05-06 12:54 | 54.90288 | 9.35597 | 4740 ft | 93 kts | 11° |
| 2026-05-06 12:54 | 54.90946 | 9.35692 | 5059 ft | 96 kts | 16° |
| 2026-05-06 12:55 | 54.91456 | 9.36312 | 5438 ft | 88 kts | 64° |
| 2026-05-06 12:55 | 54.91582 | 9.37334 | 5799 ft | 90 kts | 83° |
| 2026-05-06 12:55 | 54.91643 | 9.38414 | 6172 ft | 87 kts | 83° |
| 2026-05-06 12:55 | 54.91697 | 9.39466 | 6492 ft | 90 kts | 84° |
| 2026-05-06 12:56 | 54.91757 | 9.40560 | 6804 ft | 92 kts | 84° |
| 2026-05-06 12:56 | 54.91816 | 9.41680 | 7126 ft | 96 kts | 84° |
| 2026-05-06 12:56 | 54.91986 | 9.42795 | 7445 ft | 97 kts | 54° |
| 2026-05-06 12:56 | 54.92501 | 9.43553 | 7780 ft | 98 kts | 35° |
| 2026-05-06 12:57 | 54.93091 | 9.44196 | 8097 ft | 101 kts | 34° |
| 2026-05-06 12:57 | 54.93690 | 9.44849 | 8435 ft | 102 kts | 33° |
| 2026-05-06 12:57 | 54.94297 | 9.45527 | 8766 ft | 104 kts | 34° |
| 2026-05-06 12:57 | 54.94984 | 9.45953 | 9105 ft | 106 kts | 14° |
| 2026-05-06 12:58 | 54.95707 | 9.46264 | 9449 ft | 107 kts | 14° |
| 2026-05-06 12:58 | 54.96435 | 9.46590 | 9792 ft | 109 kts | 13° |
| 2026-05-06 12:58 | 54.97170 | 9.46935 | 10112 ft | 110 kts | 14° |
| 2026-05-06 12:58 | 54.97910 | 9.47237 | 10416 ft | 111 kts | 5° |
| 2026-05-06 12:59 | 54.98678 | 9.47393 | 10740 ft | 112 kts | 4° |
| 2026-05-06 12:59 | 54.99456 | 9.47557 | 11061 ft | 113 kts | 4° |
| 2026-05-06 12:59 | 55.00238 | 9.47716 | 11389 ft | 113 kts | 3° |
| 2026-05-06 12:59 | 55.01028 | 9.47911 | 11712 ft | 116 kts | 5° |
| 2026-05-06 13:00 | 55.01829 | 9.48115 | 12048 ft | 117 kts | 3° |
| 2026-05-06 13:00 | 55.02639 | 9.48361 | 12369 ft | 118 kts | 5° |
| 2026-05-06 13:00 | 55.03453 | 9.48585 | 12704 ft | 119 kts | 3° |
| 2026-05-06 13:00 | 55.04272 | 9.48813 | 13037 ft | 119 kts | 4° |
| 2026-05-06 13:01 | 55.05098 | 9.49038 | 13385 ft | 120 kts | 4° |
| 2026-05-06 13:01 | 55.05901 | 9.48875 | 13730 ft | 115 kts | 339° |
| 2026-05-06 13:01 | 55.06680 | 9.48511 | 14028 ft | 116 kts | 340° |
| 2026-05-06 13:01 | 55.07470 | 9.48175 | 14334 ft | 117 kts | 340° |
| 2026-05-06 13:02 | 55.08259 | 9.47861 | 14632 ft | 118 kts | 341° |
| 2026-05-06 13:02 | 55.09065 | 9.47551 | 14940 ft | 119 kts | 341° |
| 2026-05-06 13:02 | 55.09876 | 9.47243 | 15248 ft | 120 kts | 342° |
| 2026-05-06 13:02 | 55.10692 | 9.46935 | 15556 ft | 120 kts | 342° |
| 2026-05-06 13:03 | 55.11513 | 9.46627 | 15856 ft | 121 kts | 341° |
| 2026-05-06 13:03 | 55.12340 | 9.46316 | 16162 ft | 122 kts | 341° |
| 2026-05-06 13:03 | 55.13172 | 9.46004 | 16466 ft | 122 kts | 341° |
| 2026-05-06 13:03 | 55.14007 | 9.45690 | 16763 ft | 123 kts | 341° |
| 2026-05-06 13:04 | 55.14848 | 9.45374 | 17055 ft | 124 kts | 341° |
| 2026-05-06 13:04 | 55.15695 | 9.45055 | 17349 ft | 125 kts | 341° |
| 2026-05-06 13:04 | 55.16535 | 9.44739 | 17650 ft | 125 kts | 340° |
| 2026-05-06 13:04 | 55.17392 | 9.44417 | 17936 ft | 126 kts | 340° |
| 2026-05-06 13:05 | 55.18254 | 9.44092 | 18221 ft | 127 kts | 340° |
| 2026-05-06 13:05 | 55.19120 | 9.43764 | 18430 ft | 132 kts | 340° |
| 2026-05-06 13:05 | 55.20086 | 9.43395 | 18439 ft | 151 kts | 341° |
| 2026-05-06 13:05 | 55.21170 | 9.42990 | 18434 ft | 166 kts | 342° |
| 2026-05-06 13:06 | 55.22341 | 9.42551 | 18433 ft | 177 kts | 342° |
| 2026-05-06 13:06 | 55.23571 | 9.42086 | 18437 ft | 184 kts | 342° |
| 2026-05-06 13:06 | 55.24839 | 9.41605 | 18437 ft | 189 kts | 342° |
| 2026-05-06 13:06 | 55.26134 | 9.41114 | 18434 ft | 192 kts | 342° |
| 2026-05-06 13:07 | 55.27433 | 9.40624 | 18433 ft | 195 kts | 342° |
| 2026-05-06 13:07 | 55.28763 | 9.40119 | 18433 ft | 196 kts | 342° |
| 2026-05-06 13:07 | 55.30099 | 9.39613 | 18433 ft | 197 kts | 342° |
| 2026-05-06 13:07 | 55.31440 | 9.39105 | 18433 ft | 197 kts | 342° |
| 2026-05-06 13:08 | 55.32782 | 9.38596 | 18433 ft | 198 kts | 342° |
| 2026-05-06 13:08 | 55.34131 | 9.38084 | 18433 ft | 198 kts | 342° |
| 2026-05-06 13:08 | 55.35477 | 9.37572 | 18433 ft | 198 kts | 342° |
| 2026-05-06 13:08 | 55.36826 | 9.37059 | 18446 ft | 198 kts | 342° |
| 2026-05-06 13:09 | 55.38173 | 9.36546 | 18447 ft | 198 kts | 342° |
| 2026-05-06 13:09 | 55.39520 | 9.36033 | 18447 ft | 198 kts | 342° |
| 2026-05-06 13:09 | 55.40852 | 9.35526 | 18446 ft | 198 kts | 342° |
| 2026-05-06 13:09 | 55.42199 | 9.35012 | 18447 ft | 198 kts | 342° |
| 2026-05-06 13:10 | 55.43546 | 9.34498 | 18444 ft | 198 kts | 341° |
| 2026-05-06 13:10 | 55.44900 | 9.33981 | 18445 ft | 198 kts | 341° |
| 2026-05-06 13:10 | 55.46233 | 9.33471 | 18445 ft | 198 kts | 341° |
| 2026-05-06 13:10 | 55.47580 | 9.32956 | 18445 ft | 198 kts | 341° |
| 2026-05-06 13:11 | 55.48925 | 9.32441 | 18442 ft | 198 kts | 341° |
| 2026-05-06 13:11 | 55.50271 | 9.31926 | 18442 ft | 198 kts | 341° |
| 2026-05-06 13:11 | 55.51616 | 9.31410 | 18442 ft | 198 kts | 341° |
| 2026-05-06 13:11 | 55.52957 | 9.30896 | 18442 ft | 197 kts | 341° |
| 2026-05-06 13:12 | 55.54302 | 9.30379 | 18441 ft | 197 kts | 341° |
| 2026-05-06 13:12 | 55.55643 | 9.29864 | 18435 ft | 197 kts | 341° |
| 2026-05-06 13:12 | 55.56990 | 9.29346 | 18437 ft | 198 kts | 341° |
| 2026-05-06 13:12 | 55.58315 | 9.28837 | 18438 ft | 198 kts | 341° |
| 2026-05-06 13:13 | 55.59664 | 9.28318 | 18442 ft | 198 kts | 341° |
| 2026-05-06 13:13 | 55.61018 | 9.27796 | 18443 ft | 199 kts | 341° |
| 2026-05-06 13:13 | 55.62370 | 9.27275 | 18444 ft | 199 kts | 341° |
| 2026-05-06 13:13 | 55.63721 | 9.26754 | 18443 ft | 198 kts | 341° |
| 2026-05-06 13:14 | 55.65068 | 9.26235 | 18444 ft | 198 kts | 341° |
| 2026-05-06 13:14 | 55.66419 | 9.25713 | 18445 ft | 198 kts | 341° |
| 2026-05-06 13:14 | 55.67764 | 9.25193 | 18445 ft | 198 kts | 341° |
| 2026-05-06 13:14 | 55.69094 | 9.24678 | 18445 ft | 198 kts | 341° |
| 2026-05-06 13:15 | 55.70438 | 9.24158 | 18443 ft | 198 kts | 341° |
| 2026-05-06 13:15 | 55.71786 | 9.23636 | 18442 ft | 198 kts | 341° |
| 2026-05-06 13:15 | 55.73129 | 9.23115 | 18442 ft | 198 kts | 341° |
| 2026-05-06 13:15 | 55.74472 | 9.22594 | 18442 ft | 198 kts | 341° |
| 2026-05-06 13:16 | 55.75816 | 9.22073 | 18445 ft | 197 kts | 341° |
| 2026-05-06 13:16 | 55.77160 | 9.21551 | 18445 ft | 197 kts | 341° |
| 2026-05-06 13:16 | 55.78503 | 9.21029 | 18445 ft | 197 kts | 341° |
| 2026-05-06 13:16 | 55.79846 | 9.20506 | 18445 ft | 197 kts | 341° |
| 2026-05-06 13:17 | 55.81188 | 9.19984 | 18446 ft | 197 kts | 341° |
| 2026-05-06 13:17 | 55.82515 | 9.19467 | 18446 ft | 197 kts | 341° |
| 2026-05-06 13:17 | 55.83856 | 9.18944 | 18445 ft | 198 kts | 341° |
| 2026-05-06 13:17 | 55.85227 | 9.18610 | 18434 ft | 204 kts | 359° |
| 2026-05-06 13:18 | 55.86620 | 9.19253 | 18442 ft | 208 kts | 14° |
| 2026-05-06 13:18 | 55.87986 | 9.20145 | 18440 ft | 209 kts | 16° |
| 2026-05-06 13:18 | 55.89350 | 9.21045 | 18439 ft | 209 kts | 15° |
| 2026-05-06 13:18 | 55.90720 | 9.21913 | 18439 ft | 209 kts | 14° |
| 2026-05-06 13:19 | 55.92078 | 9.22762 | 18441 ft | 209 kts | 14° |
| 2026-05-06 13:19 | 55.93450 | 9.23622 | 18441 ft | 209 kts | 15° |
| 2026-05-06 13:19 | 55.94824 | 9.24486 | 18440 ft | 209 kts | 14° |
| 2026-05-06 13:19 | 55.96197 | 9.25350 | 18442 ft | 210 kts | 14° |
| 2026-05-06 13:20 | 55.97574 | 9.26217 | 18440 ft | 210 kts | 14° |
| 2026-05-06 13:20 | 55.98954 | 9.27087 | 18438 ft | 210 kts | 14° |
| 2026-05-06 13:20 | 56.00335 | 9.27958 | 18437 ft | 210 kts | 14° |
| 2026-05-06 13:20 | 56.01716 | 9.28830 | 18437 ft | 210 kts | 14° |
| 2026-05-06 13:21 | 56.02631 | 9.29408 | 18435 ft | 210 kts | 14° |
| 2026-05-06 13:21 | 56.04015 | 9.30282 | 18435 ft | 210 kts | 14° |
| 2026-05-06 13:21 | 56.05396 | 9.31156 | 18434 ft | 210 kts | 14° |
| 2026-05-06 13:21 | 56.07225 | 9.32313 | 18428 ft | 210 kts | 14° |
| 2026-05-06 13:22 | 56.08156 | 9.32903 | 18432 ft | 210 kts | 14° |
| 2026-05-06 13:22 | 56.09537 | 9.33778 | 18433 ft | 210 kts | 14° |
| 2026-05-06 13:22 | 56.10917 | 9.34654 | 18433 ft | 210 kts | 14° |
| 2026-05-06 13:22 | 56.12298 | 9.35530 | 18433 ft | 211 kts | 14° |
| 2026-05-06 13:23 | 56.13662 | 9.36397 | 18430 ft | 211 kts | 14° |
| 2026-05-06 13:23 | 56.15047 | 9.37278 | 18431 ft | 211 kts | 14° |
| 2026-05-06 13:23 | 56.16431 | 9.38159 | 18430 ft | 211 kts | 14° |
| 2026-05-06 13:23 | 56.17811 | 9.39037 | 18431 ft | 211 kts | 14° |
| 2026-05-06 13:24 | 56.19194 | 9.39918 | 18427 ft | 211 kts | 14° |
| 2026-05-06 13:24 | 56.20575 | 9.40799 | 18427 ft | 211 kts | 14° |
| 2026-05-06 13:24 | 56.21955 | 9.41680 | 18437 ft | 211 kts | 14° |
| 2026-05-06 13:24 | 56.23341 | 9.42564 | 18427 ft | 212 kts | 14° |
| 2026-05-06 13:25 | 56.24728 | 9.43450 | 18425 ft | 211 kts | 14° |
| 2026-05-06 13:25 | 56.26115 | 9.44338 | 18426 ft | 212 kts | 14° |
| 2026-05-06 13:25 | 56.27503 | 9.45227 | 18425 ft | 212 kts | 14° |
| 2026-05-06 13:25 | 56.28894 | 9.46117 | 18425 ft | 212 kts | 14° |
| 2026-05-06 13:26 | 56.30284 | 9.47010 | 18428 ft | 212 kts | 14° |
| 2026-05-06 13:26 | 56.31672 | 9.47900 | 18429 ft | 212 kts | 14° |
| 2026-05-06 13:26 | 56.33060 | 9.48792 | 18430 ft | 212 kts | 14° |
| 2026-05-06 13:26 | 56.34452 | 9.49686 | 18428 ft | 212 kts | 14° |
| 2026-05-06 13:27 | 56.35842 | 9.50580 | 18430 ft | 212 kts | 14° |
| 2026-05-06 13:27 | 56.37235 | 9.51477 | 18431 ft | 212 kts | 14° |
| 2026-05-06 13:27 | 56.38608 | 9.52362 | 18432 ft | 212 kts | 14° |
| 2026-05-06 13:27 | 56.40000 | 9.53258 | 18431 ft | 212 kts | 14° |
| 2026-05-06 13:28 | 56.41389 | 9.54155 | 18431 ft | 212 kts | 14° |
| 2026-05-06 13:28 | 56.42781 | 9.55053 | 18432 ft | 212 kts | 14° |
| 2026-05-06 13:28 | 56.44174 | 9.55953 | 18431 ft | 212 kts | 14° |
| 2026-05-06 13:28 | 56.45566 | 9.56853 | 18431 ft | 212 kts | 14° |
| 2026-05-06 13:29 | 56.46962 | 9.57757 | 18431 ft | 212 kts | 14° |
| 2026-05-06 13:29 | 56.48355 | 9.58659 | 18432 ft | 213 kts | 14° |
| 2026-05-06 13:29 | 56.49752 | 9.59564 | 18433 ft | 213 kts | 14° |
| 2026-05-06 13:29 | 56.51149 | 9.60471 | 18434 ft | 213 kts | 14° |
| 2026-05-06 13:30 | 56.52533 | 9.61369 | 18433 ft | 214 kts | 14° |
| 2026-05-06 13:30 | 56.53933 | 9.62279 | 18434 ft | 214 kts | 14° |
| 2026-05-06 13:30 | 56.55335 | 9.63189 | 18433 ft | 214 kts | 14° |
| 2026-05-06 13:30 | 56.56739 | 9.64104 | 18433 ft | 214 kts | 14° |
| 2026-05-06 13:31 | 56.58140 | 9.65018 | 18439 ft | 214 kts | 14° |
| 2026-05-06 13:31 | 56.59542 | 9.65931 | 18439 ft | 214 kts | 14° |
| 2026-05-06 13:31 | 56.60925 | 9.66833 | 18440 ft | 214 kts | 14° |
| 2026-05-06 13:31 | 56.62331 | 9.67750 | 18439 ft | 214 kts | 14° |
| 2026-05-06 13:32 | 56.63734 | 9.68667 | 18437 ft | 214 kts | 14° |
| 2026-05-06 13:32 | 56.65137 | 9.69584 | 18437 ft | 214 kts | 14° |
| 2026-05-06 13:32 | 56.66539 | 9.70502 | 18435 ft | 214 kts | 14° |
| 2026-05-06 13:32 | 56.67941 | 9.71419 | 18441 ft | 214 kts | 14° |
| 2026-05-06 13:33 | 56.69324 | 9.72324 | 18442 ft | 214 kts | 14° |
| 2026-05-06 13:33 | 56.70728 | 9.73246 | 18443 ft | 214 kts | 14° |
| 2026-05-06 13:33 | 56.72130 | 9.74167 | 18442 ft | 214 kts | 14° |
| 2026-05-06 13:33 | 56.73533 | 9.75089 | 18443 ft | 215 kts | 14° |
| 2026-05-06 13:34 | 56.74941 | 9.76014 | 18439 ft | 215 kts | 14° |
| 2026-05-06 13:34 | 56.76345 | 9.76938 | 18438 ft | 214 kts | 14° |
| 2026-05-06 13:34 | 56.77746 | 9.77860 | 18438 ft | 214 kts | 14° |
| 2026-05-06 13:34 | 56.79148 | 9.78785 | 18444 ft | 214 kts | 14° |
| 2026-05-06 13:35 | 56.80550 | 9.79710 | 18443 ft | 214 kts | 14° |
| 2026-05-06 13:35 | 56.81955 | 9.80637 | 18442 ft | 215 kts | 14° |
| 2026-05-06 13:35 | 56.83342 | 9.81554 | 18441 ft | 215 kts | 14° |
| 2026-05-06 13:35 | 56.84747 | 9.82482 | 18441 ft | 214 kts | 14° |
| 2026-05-06 13:36 | 56.86149 | 9.83410 | 18442 ft | 214 kts | 14° |
| 2026-05-06 13:36 | 56.87548 | 9.84337 | 18441 ft | 214 kts | 14° |
| 2026-05-06 13:36 | 56.88951 | 9.85266 | 18447 ft | 214 kts | 14° |
| 2026-05-06 13:36 | 56.90353 | 9.86196 | 18447 ft | 214 kts | 14° |
| 2026-05-06 13:37 | 56.91754 | 9.87126 | 18452 ft | 214 kts | 14° |
| 2026-05-06 13:37 | 56.93157 | 9.88057 | 18453 ft | 214 kts | 14° |
| 2026-05-06 13:37 | 56.94533 | 9.88974 | 18373 ft | 214 kts | 14° |
| 2026-05-06 13:37 | 56.95939 | 9.89910 | 18307 ft | 214 kts | 14° |
| 2026-05-06 13:38 | 56.97339 | 9.90842 | 18227 ft | 212 kts | 14° |
| 2026-05-06 13:38 | 56.98724 | 9.91766 | 18025 ft | 212 kts | 14° |
| 2026-05-06 13:38 | 57.00106 | 9.92688 | 17838 ft | 210 kts | 14° |
| 2026-05-06 13:38 | 57.01474 | 9.93600 | 17597 ft | 209 kts | 14° |
| 2026-05-06 13:39 | 57.02818 | 9.94499 | 17359 ft | 207 kts | 14° |
| 2026-05-06 13:39 | 57.04171 | 9.95403 | 17104 ft | 206 kts | 14° |
| 2026-05-06 13:39 | 57.05512 | 9.96300 | 16869 ft | 205 kts | 15° |
| 2026-05-06 13:39 | 57.06848 | 9.97193 | 16629 ft | 203 kts | 15° |
| 2026-05-06 13:40 | 57.08175 | 9.98083 | 16392 ft | 202 kts | 15° |
| 2026-05-06 13:40 | 57.09492 | 9.98967 | 16168 ft | 201 kts | 15° |
| 2026-05-06 13:40 | 57.10809 | 9.99787 | 15942 ft | 198 kts | 11° |
| 2026-05-06 13:40 | 57.12128 | 10.00516 | 15716 ft | 197 kts | 12° |
| 2026-05-06 13:41 | 57.13420 | 10.01246 | 15495 ft | 196 kts | 12° |
| 2026-05-06 13:41 | 57.14706 | 10.01966 | 15128 ft | 193 kts | 12° |
| 2026-05-06 13:41 | 57.15996 | 10.02680 | 14724 ft | 191 kts | 12° |
| 2026-05-06 13:41 | 57.17261 | 10.03384 | 14332 ft | 189 kts | 13° |
| 2026-05-06 13:42 | 57.18516 | 10.04083 | 13944 ft | 187 kts | 13° |
| 2026-05-06 13:42 | 57.19759 | 10.04774 | 13603 ft | 184 kts | 13° |
| 2026-05-06 13:42 | 57.20964 | 10.05446 | 13138 ft | 183 kts | 13° |
| 2026-05-06 13:42 | 57.22181 | 10.06123 | 12673 ft | 177 kts | 13° |
| 2026-05-06 13:43 | 57.23360 | 10.06782 | 11872 ft | 184 kts | 13° |
| 2026-05-06 13:43 | 57.24577 | 10.07460 | 11694 ft | 178 kts | 13° |
| 2026-05-06 13:43 | 57.25758 | 10.08120 | 11465 ft | 177 kts | 13° |
| 2026-05-06 13:43 | 57.26936 | 10.08755 | 11228 ft | 175 kts | 11° |
| 2026-05-06 13:44 | 57.28118 | 10.09260 | 10985 ft | 174 kts | 8° |
| 2026-05-06 13:44 | 57.29289 | 10.09811 | 10738 ft | 173 kts | 12° |
| 2026-05-06 13:44 | 57.30433 | 10.10443 | 10501 ft | 173 kts | 14° |
| 2026-05-06 13:44 | 57.31576 | 10.11104 | 10266 ft | 171 kts | 14° |
| 2026-05-06 13:45 | 57.32712 | 10.11763 | 10037 ft | 170 kts | 15° |
| 2026-05-06 13:45 | 57.34964 | 10.13062 | 9519 ft | 169 kts | 15° |
| 2026-05-06 13:45 | 57.36069 | 10.13699 | 9233 ft | 168 kts | 15° |
| 2026-05-06 13:46 | 57.37184 | 10.14343 | 8948 ft | 168 kts | 16° |
| 2026-05-06 13:46 | 57.38288 | 10.14981 | 8592 ft | 163 kts | 16° |
| 2026-05-06 13:46 | 57.39382 | 10.15614 | 7993 ft | 166 kts | 15° |
| 2026-05-06 13:46 | 57.40483 | 10.16255 | 7424 ft | 165 kts | 16° |
| 2026-05-06 13:47 | 57.41567 | 10.16880 | 6788 ft | 157 kts | 16° |
| 2026-05-06 13:47 | 57.42611 | 10.17480 | 5713 ft | 159 kts | 17° |
| 2026-05-06 13:47 | 57.43653 | 10.18077 | 4906 ft | 148 kts | 18° |
| 2026-05-06 13:47 | 57.44580 | 10.18617 | 4201 ft | 135 kts | 18° |
| 2026-05-06 13:48 | 57.45466 | 10.19135 | 3212 ft | 135 kts | 17° |
| 2026-05-06 13:48 | 57.46333 | 10.19640 | 2323 ft | 124 kts | 16° |
| 2026-05-06 13:48 | 57.47079 | 10.20070 | 1979 ft | 97 kts | 14° |
| 2026-05-06 13:48 | 57.47739 | 10.20451 | 1712 ft | 99 kts | 15° |
| 2026-05-06 13:49 | 57.48271 | 10.21154 | 1384 ft | 97 kts | 55° |
| 2026-05-06 13:49 | 57.48502 | 10.22354 | 1114 ft | 99 kts | 64° |
| 2026-05-06 13:49 | 57.48675 | 10.23564 | 907 ft | 93 kts | 64° |
| 2026-05-06 13:49 | 57.48836 | 10.24752 | 809 ft | 98 kts | 69° |
| 2026-05-06 13:50 | 57.49216 | 10.25692 | 756 ft | 90 kts | 9° |
| 2026-05-06 13:50 | 57.49833 | 10.25510 | 660 ft | 91 kts | 350° |
| 2026-05-06 13:50 | 57.50369 | 10.25123 | 550 ft | 81 kts | 317° |
| 2026-05-06 13:50 | 57.50372 | 10.24009 | 247 ft | 93 kts | 278° |
| 2026-05-06 13:51 | 57.50353 | 10.22956 | 92 ft | 62 kts | 269° |
| 2026-05-06 13:51 | 57.50337 | 10.22501 | 90 ft | 19 kts | 269° |
| 2026-05-06 13:51 | 57.50380 | 10.22414 | 94 ft | 9 kts | 356° |
| 2026-05-06 13:51 | 57.50430 | 10.22410 | 93 ft | 5 kts | 357° |
| 2026-05-06 13:52 | 57.50452 | 10.22407 | 93 ft | 0 kts | 359° |